Time;durP1;ratioP1;P1;durP2;ratioP2;P2;SDS_P1;SDS_P2;PMS_P1;PMS_P2;Temp;Humidity;BMP_temperature;BMP_pressure;BME280_temperature;BME280_humidity;BME280_pressure;Samples;Min_cycle;Max_cycle;Signal;HPM_P1;HPM_P2
2022/10/13 00:00:56;;;;;;;5.70;2.20;;;;;;;7.53;77.03;99869.12;102375;1294;61899;-24
2022/10/13 00:03:23;;;;;;;7.90;3.10;;;;;;;8.10;75.72;99869.52;102291;1292;61343;-24
2022/10/13 00:05:51;;;;;;;10.00;4.00;;;;;;;8.23;74.54;99872.61;102331;1299;75887;-25
2022/10/13 00:08:20;;;;;;;6.50;3.10;;;;;;;8.05;74.58;99873.29;102321;1292;76872;-24
2022/10/13 00:10:48;;;;;;;9.00;3.60;;;;;;;7.82;75.30;99867.52;102002;1302;75224;-24
2022/10/13 00:13:18;;;;;;;9.50;3.20;;;;;;;7.59;75.93;99870.00;102130;1299;61456;-24
2022/10/13 00:15:46;;;;;;;8.40;3.10;;;;;;;7.40;76.27;99867.77;102070;1298;61487;-24
2022/10/13 00:18:14;;;;;;;6.00;2.50;;;;;;;7.29;76.55;99867.35;102272;1302;74837;-24
2022/10/13 00:20:51;;;;;;;7.20;2.80;;;;;;;7.69;76.64;99870.29;102230;1302;76816;-25
2022/10/13 00:23:18;;;;;;;6.80;2.90;;;;;;;8.27;75.09;99872.23;102140;1302;74052;-25
2022/10/13 00:25:46;;;;;;;4.70;3.10;;;;;;;8.34;74.60;99871.98;102351;1298;62970;-24
2022/10/13 00:28:14;;;;;;;6.70;3.10;;;;;;;8.18;74.63;99871.02;102189;1301;62878;-24
2022/10/13 00:30:41;;;;;;;7.50;3.20;;;;;;;7.96;75.19;99870.15;102278;1299;74232;-24
2022/10/13 00:33:10;;;;;;;5.50;3.10;;;;;;;7.76;75.67;99869.93;102219;1302;74877;-24
2022/10/13 00:35:47;;;;;;;9.20;3.40;;;;;;;7.53;76.56;99867.77;102193;1302;75358;-24
2022/10/13 00:38:15;;;;;;;5.30;2.20;;;;;;;7.34;77.39;99864.34;102250;1286;64412;-24
2022/10/13 00:40:54;;;;;;;6.90;2.90;;;;;;;7.81;77.25;99867.71;102278;1295;61534;-24
2022/10/13 00:43:26;;;;;;;7.70;3.20;;;;;;;8.43;75.49;99868.36;102379;1302;76428;-24
2022/10/13 00:45:53;;;;;;;6.20;3.10;;;;;;;8.51;74.76;99866.83;102072;1299;76715;-24
2022/10/13 00:48:27;;;;;;;6.40;3.10;;;;;;;8.36;74.51;99864.41;102347;1284;74195;-24
2022/10/13 00:50:54;;;;;;;9.30;3.30;;;;;;;8.12;75.18;99863.73;102333;1298;61185;-24
2022/10/13 00:53:23;;;;;;;8.40;3.70;;;;;;;7.88;75.76;99861.48;102212;1302;62638;-24
2022/10/13 00:55:50;;;;;;;6.60;3.30;;;;;;;7.66;76.12;99862.16;102101;1299;76428;-25
2022/10/13 00:58:18;;;;;;;9.70;3.80;;;;;;;7.50;76.40;99860.50;102422;1299;75493;-24
2022/10/13 01:00:46;;;;;;;5.60;2.80;;;;;;;7.35;77.11;99861.66;102347;1299;75210;-24
2022/10/13 01:03:16;;;;;;;6.00;3.30;;;;;;;7.82;77.22;99859.22;102130;1299;62930;-24
2022/10/13 01:05:43;;;;;;;6.20;3.10;;;;;;;8.41;75.81;99862.06;102014;1301;62603;-24
2022/10/13 01:08:11;;;;;;;5.70;3.30;;;;;;;8.48;75.05;99856.08;102171;1302;76265;-24
2022/10/13 01:10:48;;;;;;;8.70;3.40;;;;;;;8.32;74.76;99858.78;102320;1298;76693;-24
2022/10/13 01:13:27;;;;;;;6.30;3.50;;;;;;;8.04;75.24;99855.88;102039;1296;73985;-24
2022/10/13 01:16:10;;;;;;;7.50;3.70;;;;;;;7.84;75.88;99859.60;102281;1299;62011;-24
2022/10/13 01:18:45;;;;;;;6.90;3.20;;;;;;;7.63;76.16;99856.63;102204;1295;61719;-24
2022/10/13 01:21:32;;;;;;;5.30;2.70;;;;;;;7.49;76.79;99859.36;102259;1294;76103;-24
2022/10/13 01:24:26;;;;;;;5.50;2.80;;;;;;;8.05;77.00;99860.34;102171;1301;74752;-24
2022/10/13 01:27:12;;;;;;;6.90;3.70;;;;;;;8.59;75.44;99860.31;102323;1297;73988;-24
2022/10/13 01:30:03;;;;;;;5.90;3.60;;;;;;;8.55;74.89;99858.66;102288;1299;63134;-24
2022/10/13 01:32:46;;;;;;;10.20;3.80;;;;;;;8.30;74.94;99858.91;102311;1300;61779;-24
2022/10/13 01:35:16;;;;;;;9.90;3.10;;;;;;;8.04;75.23;99851.75;102341;1296;75384;-24
2022/10/13 01:37:52;;;;;;;9.70;4.10;;;;;;;7.83;75.71;99848.29;102286;1302;76741;-24
2022/10/13 01:40:29;;;;;;;7.90;3.50;;;;;;;7.63;76.38;99848.71;102381;1298;75194;-24
2022/10/13 01:42:56;;;;;;;8.70;2.90;;;;;;;7.48;76.58;99848.83;102345;1299;64483;-24
2022/10/13 01:45:28;;;;;;;5.50;3.20;;;;;;;7.96;76.45;99849.92;102331;1299;61535;-24
2022/10/13 01:47:55;;;;;;;9.70;3.60;;;;;;;8.55;74.88;99854.31;102056;1302;75355;-25
2022/10/13 01:50:22;;;;;;;11.60;3.90;;;;;;;8.63;74.26;99849.71;102302;1297;75702;-25
2022/10/13 01:52:49;;;;;;;7.20;3.80;;;;;;;8.48;74.40;99847.64;102297;1292;75094;-24
2022/10/13 01:55:16;;;;;;;11.10;4.70;;;;;;;8.23;74.51;99849.81;102171;1300;62616;-24
2022/10/13 01:57:44;;;;;;;7.90;3.80;;;;;;;7.96;74.91;99850.45;102287;1291;62541;-24
2022/10/13 02:00:14;;;;;;;6.00;3.30;;;;;;;7.71;75.54;99847.20;102296;1299;76245;-24
2022/10/13 02:03:11;;;;;;;9.00;3.70;;;;;;;7.50;76.07;99849.77;102322;1298;75796;-24
2022/10/13 02:05:50;;;;;;;6.20;2.60;;;;;;;7.37;76.81;99855.70;101333;1299;71857;-24
2022/10/13 02:08:24;;;;;;;8.30;3.30;;;;;;;8.05;76.47;99855.30;102320;1299;62880;-24
2022/10/13 02:10:59;;;;;;;6.90;3.80;;;;;;;8.61;74.77;99852.77;102308;1300;62002;-25
2022/10/13 02:13:27;;;;;;;9.50;3.90;;;;;;;8.61;74.18;99852.58;102129;1299;76377;-24
2022/10/13 02:15:56;;;;;;;6.50;4.00;;;;;;;8.39;74.45;99853.52;102284;1299;75868;-24
2022/10/13 02:18:29;;;;;;;7.60;4.10;;;;;;;8.11;74.68;99852.19;102158;1299;75375;-24
2022/10/13 02:20:56;;;;;;;6.90;3.90;;;;;;;7.84;75.28;99850.65;102223;1302;61810;-24
2022/10/13 02:23:23;;;;;;;7.10;3.80;;;;;;;7.59;75.70;99849.41;102319;1297;61659;-25
2022/10/13 02:25:50;;;;;;;9.20;4.30;;;;;;;7.39;76.23;99849.53;102238;1299;76231;-24
2022/10/13 02:28:17;;;;;;;6.10;2.90;;;;;;;7.24;76.94;99853.47;102372;1299;75565;-24
2022/10/13 02:30:45;;;;;;;8.10;3.20;;;;;;;7.67;77.46;99859.70;102323;1299;75074;-24
2022/10/13 02:33:13;;;;;;;6.30;3.60;;;;;;;8.20;76.29;99864.10;102282;1299;61169;-24
2022/10/13 02:35:40;;;;;;;8.50;4.60;;;;;;;8.26;75.58;99858.09;102057;1302;61510;-24
2022/10/13 02:38:08;;;;;;;9.70;3.90;;;;;;;8.10;75.88;99859.48;102120;1301;76363;-25
2022/10/13 02:40:35;;;;;;;8.30;3.60;;;;;;;7.92;75.94;99856.23;102324;1299;75821;-24
2022/10/13 02:43:02;;;;;;;7.90;3.90;;;;;;;7.69;76.04;99849.73;102240;1302;75308;-24
2022/10/13 02:45:29;;;;;;;6.10;3.50;;;;;;;7.43;76.97;99848.10;102262;1298;61331;-24
2022/10/13 02:47:57;;;;;;;6.80;3.10;;;;;;;7.17;78.34;99847.77;102247;1301;62339;-24
2022/10/13 02:50:24;;;;;;;8.80;3.40;;;;;;;7.53;77.84;99846.30;102274;1296;76385;-25
2022/10/13 02:52:52;;;;;;;7.60;3.90;;;;;;;8.10;76.84;99850.35;102258;1298;76517;-24
2022/10/13 02:55:19;;;;;;;9.40;4.20;;;;;;;8.20;75.90;99849.95;102205;1302;73788;-24
2022/10/13 02:57:46;;;;;;;11.90;4.60;;;;;;;8.01;75.67;99846.55;102326;1297;62398;-24
2022/10/13 03:00:14;;;;;;;7.70;4.20;;;;;;;7.75;76.07;99845.63;102314;1300;62834;-24
2022/10/13 03:02:41;;;;;;;9.80;4.80;;;;;;;7.48;76.82;99842.28;102340;1299;76348;-24
2022/10/13 03:05:09;;;;;;;8.60;4.00;;;;;;;7.24;77.20;99844.46;102236;1296;76712;-25
2022/10/13 03:07:36;;;;;;;6.50;3.40;;;;;;;7.04;77.70;99840.70;102156;1301;74980;-24
2022/10/13 03:10:03;;;;;;;5.50;3.50;;;;;;;7.39;78.39;99843.81;102313;1299;62831;-25
2022/10/13 03:12:31;;;;;;;10.00;4.70;;;;;;;7.93;76.88;99848.72;102088;1299;62571;-25
2022/10/13 03:14:57;;;;;;;12.30;4.00;;;;;;;7.99;76.22;99850.81;102383;1299;76455;-24
2022/10/13 03:17:25;;;;;;;9.50;3.90;;;;;;;7.82;76.01;99848.66;102345;1299;76760;-25
2022/10/13 03:19:51;;;;;;;11.00;4.50;;;;;;;7.57;76.32;99848.20;102366;1298;75130;-25
2022/10/13 03:22:18;;;;;;;9.20;4.70;;;;;;;7.29;76.64;99848.20;102341;1298;61781;-25
2022/10/13 03:24:46;;;;;;;11.70;5.00;;;;;;;7.02;77.06;99849.61;102340;1297;61809;-25
2022/10/13 03:27:13;;;;;;;10.50;3.60;;;;;;;6.77;78.19;99850.59;102350;1299;76328;-25
2022/10/13 03:29:40;;;;;;;7.90;3.40;;;;;;;7.08;78.50;99848.77;102325;1299;77007;-25
2022/10/13 03:32:07;;;;;;;11.20;4.20;;;;;;;7.53;77.00;99851.66;102178;1302;74055;-25
2022/10/13 03:34:34;;;;;;;18.20;7.40;;;;;;;7.41;77.45;99847.50;102244;1300;62146;-25
2022/10/13 03:37:01;;;;;;;38.90;15.60;;;;;;;7.14;78.14;99845.52;102320;1297;61772;-25
2022/10/13 03:39:32;;;;;;;21.20;9.30;;;;;;;6.87;78.96;99847.31;102351;1299;76225;-25
2022/10/13 03:41:59;;;;;;;15.60;7.20;;;;;;;6.59;79.35;99848.58;102360;1300;76511;-25
2022/10/13 03:44:26;;;;;;;55.50;21.70;;;;;;;6.36;79.30;99846.17;102326;1299;73926;-24
2022/10/13 03:46:53;;;;;;;81.80;27.30;;;;;;;6.15;79.47;99843.73;102312;1299;62425;-25
2022/10/13 03:49:19;;;;;;;271.80;98.70;;;;;;;6.52;79.49;99843.27;102335;1293;61520;-25
2022/10/13 03:51:46;;;;;;;209.70;79.10;;;;;;;7.01;78.65;99838.79;102358;1291;76488;-25
2022/10/13 03:54:14;;;;;;;88.50;35.50;;;;;;;6.97;78.15;99835.89;102329;1299;76511;-25
2022/10/13 03:56:42;;;;;;;41.60;15.50;;;;;;;6.72;78.92;99841.84;102228;1297;74215;-25
2022/10/13 03:59:10;;;;;;;21.10;10.10;;;;;;;6.47;79.20;99839.19;102321;1299;62872;-26
2022/10/13 04:01:38;;;;;;;20.50;9.10;;;;;;;6.24;79.53;99841.77;102230;1299;61894;-25
2022/10/13 04:04:06;;;;;;;11.40;5.20;;;;;;;6.03;80.14;99838.29;102348;1299;76094;-25
2022/10/13 04:06:33;;;;;;;11.10;4.50;;;;;;;6.39;80.52;99838.58;102332;1299;75825;-25
2022/10/13 04:09:00;;;;;;;10.60;4.90;;;;;;;6.91;79.45;99836.04;102267;1301;75166;-25
2022/10/13 04:11:27;;;;;;;13.50;6.60;;;;;;;6.98;78.41;99838.64;102311;1299;63018;-25
2022/10/13 04:13:56;;;;;;;8.60;5.10;;;;;;;6.74;77.80;99845.38;102324;1299;62950;-25
2022/10/13 04:16:28;;;;;;;10.20;3.60;;;;;;;6.48;77.83;99838.30;102006;1302;75338;-25
2022/10/13 04:18:57;;;;;;;9.20;4.70;;;;;;;6.19;77.91;99837.02;102332;1294;76740;-25
2022/10/13 04:21:24;;;;;;;11.60;4.70;;;;;;;5.93;78.63;99837.58;102283;1298;74041;-25
2022/10/13 04:23:56;;;;;;;5.30;3.50;;;;;;;5.75;79.47;99842.20;102309;1293;62514;-25
2022/10/13 04:26:24;;;;;;;6.00;3.20;;;;;;;6.16;79.64;99840.75;102009;1300;62564;-25
2022/10/13 04:28:52;;;;;;;7.80;3.80;;;;;;;6.71;78.49;99843.64;102181;1301;76289;-25
2022/10/13 04:31:21;;;;;;;8.00;3.50;;;;;;;6.78;78.21;99846.94;102122;1300;76741;-24
2022/10/13 04:33:48;;;;;;;5.90;3.20;;;;;;;6.63;78.04;99842.67;102338;1292;75260;-25
2022/10/13 04:36:15;;;;;;;7.90;3.40;;;;;;;6.38;77.76;99843.44;102160;1301;62893;-25
2022/10/13 04:38:43;;;;;;;8.10;3.80;;;;;;;6.10;77.90;99842.77;102350;1299;61902;-25
2022/10/13 04:41:11;;;;;;;8.80;4.30;;;;;;;5.86;78.17;99845.66;102345;1299;76472;-25
2022/10/13 04:43:38;;;;;;;5.30;3.10;;;;;;;5.70;79.16;99846.61;102349;1299;76610;-25
2022/10/13 04:46:12;;;;;;;7.10;3.60;;;;;;;6.15;79.85;99850.27;102326;1299;73939;-24
2022/10/13 04:48:39;;;;;;;10.90;3.30;;;;;;;6.79;78.91;99851.00;102380;1294;62860;-25
2022/10/13 04:51:09;;;;;;;9.40;4.20;;;;;;;6.93;77.96;99846.81;102373;1297;61612;-25
2022/10/13 04:53:36;;;;;;;7.50;3.90;;;;;;;6.80;77.32;99848.85;102246;1294;76462;-25
2022/10/13 04:56:08;;;;;;;6.40;3.10;;;;;;;6.60;77.33;99848.70;102336;1299;76499;-24
2022/10/13 04:58:35;;;;;;;13.30;4.30;;;;;;;6.35;77.82;99846.01;102189;1295;74207;-25
2022/10/13 05:01:04;;;;;;;11.60;4.90;;;;;;;6.14;78.42;99847.75;102324;1302;63015;-24
2022/10/13 05:03:31;;;;;;;6.70;3.00;;;;;;;6.01;78.72;99850.96;102198;1302;61886;-25
2022/10/13 05:05:58;;;;;;;8.60;3.60;;;;;;;6.47;78.72;99850.25;102312;1299;75321;-25
2022/10/13 05:08:25;;;;;;;7.90;3.70;;;;;;;7.09;77.85;99851.80;102367;1298;75529;-25
2022/10/13 05:10:53;;;;;;;7.20;3.70;;;;;;;7.25;77.12;99851.50;102329;1301;75190;-25
2022/10/13 05:13:20;;;;;;;6.30;3.60;;;;;;;7.15;76.88;99853.73;102407;1298;62162;-25
2022/10/13 05:15:48;;;;;;;7.60;3.90;;;;;;;6.97;76.92;99853.00;102311;1298;63012;-25
2022/10/13 05:18:17;;;;;;;10.50;4.30;;;;;;;6.78;77.10;99856.25;102395;1297;75874;-26
2022/10/13 05:20:45;;;;;;;8.30;3.80;;;;;;;6.64;77.69;99855.08;102330;1299;75401;-25
2022/10/13 05:23:13;;;;;;;5.10;3.00;;;;;;;6.57;78.34;99853.67;102296;1302;73892;-25
2022/10/13 05:25:40;;;;;;;7.20;3.00;;;;;;;7.09;78.11;99857.01;102322;1292;61843;-25
2022/10/13 05:28:09;;;;;;;5.10;3.20;;;;;;;7.74;76.95;99860.52;102315;1299;62353;-25
2022/10/13 05:30:36;;;;;;;6.10;3.80;;;;;;;7.93;76.28;99862.09;102274;1302;76471;-25
2022/10/13 05:33:04;;;;;;;6.10;3.70;;;;;;;7.89;76.19;99857.12;102289;1293;74719;-25
2022/10/13 05:35:31;;;;;;;9.90;4.90;;;;;;;7.74;76.35;99858.83;102302;1299;74321;-25
2022/10/13 05:37:58;;;;;;;15.00;4.80;;;;;;;7.54;76.94;99864.21;102326;1293;61145;-25
2022/10/13 05:40:25;;;;;;;11.00;4.90;;;;;;;7.40;77.18;99864.13;102381;1299;62359;-25
2022/10/13 05:42:55;;;;;;;9.30;4.00;;;;;;;7.30;77.42;99863.83;102347;1299;75095;-25
2022/10/13 05:45:22;;;;;;;6.60;3.90;;;;;;;7.76;77.66;99866.45;102281;1302;76892;-25
2022/10/13 05:47:49;;;;;;;10.40;4.80;;;;;;;8.38;76.81;99868.65;102392;1298;74238;-25
2022/10/13 05:50:16;;;;;;;9.00;4.90;;;;;;;8.54;75.81;99864.95;102363;1299;61560;-25
2022/10/13 05:52:43;;;;;;;11.50;5.40;;;;;;;8.46;75.82;99867.98;102216;1298;62927;-25
2022/10/13 05:55:10;;;;;;;13.90;5.30;;;;;;;8.35;75.96;99867.07;102242;1300;76239;-25
2022/10/13 05:57:41;;;;;;;10.90;5.40;;;;;;;8.25;76.42;99869.35;102131;1294;75836;-25
2022/10/13 06:00:10;;;;;;;9.30;5.10;;;;;;;8.15;76.36;99870.14;102086;1302;74258;-25
2022/10/13 06:02:43;;;;;;;6.20;3.50;;;;;;;8.06;76.78;99868.25;102197;1300;63316;-25
2022/10/13 06:05:12;;;;;;;15.60;4.50;;;;;;;8.59;76.53;99872.58;102142;1301;62631;-25
2022/10/13 06:07:39;;;;;;;8.70;5.40;;;;;;;9.20;75.36;99872.04;102219;1302;76358;-25
2022/10/13 06:10:07;;;;;;;10.70;4.40;;;;;;;9.40;74.42;99876.82;102348;1299;76774;-25
2022/10/13 06:12:35;;;;;;;9.40;4.90;;;;;;;9.35;74.49;99875.73;102278;1292;74195;-25
2022/10/13 06:15:03;;;;;;;11.30;5.10;;;;;;;9.24;74.95;99877.86;102322;1299;61503;-25
2022/10/13 06:17:30;;;;;;;9.70;4.70;;;;;;;9.11;75.00;99878.11;102072;1302;63308;-26
2022/10/13 06:19:58;;;;;;;10.20;5.10;;;;;;;8.98;75.41;99877.20;102389;1293;76196;-23
2022/10/13 06:22:25;;;;;;;10.00;5.00;;;;;;;8.86;75.77;99879.98;102390;1298;75729;-23
2022/10/13 06:24:52;;;;;;;12.10;4.10;;;;;;;8.77;76.26;99882.08;102343;1295;74112;-23
2022/10/13 06:27:19;;;;;;;7.20;4.10;;;;;;;9.38;75.97;99885.80;102366;1299;61652;-23
2022/10/13 06:29:48;;;;;;;9.60;5.40;;;;;;;10.12;73.54;99889.74;102384;1292;62880;-25
2022/10/13 06:32:15;;;;;;;10.40;5.00;;;;;;;10.39;73.29;99890.06;102280;1299;76336;-24
2022/10/13 06:34:43;;;;;;;11.20;5.70;;;;;;;10.44;73.33;99892.71;102313;1298;75727;-24
2022/10/13 06:37:10;;;;;;;12.60;5.60;;;;;;;10.30;73.01;99895.70;102321;1293;75077;-23
2022/10/13 06:39:37;;;;;;;12.00;5.60;;;;;;;10.19;73.02;99895.22;102322;1302;62873;-24
2022/10/13 06:42:04;;;;;;;12.20;5.30;;;;;;;10.09;73.42;99897.27;102350;1291;61019;-24
2022/10/13 06:44:36;;;;;;;8.80;4.30;;;;;;;10.02;73.58;99899.77;102364;1293;76396;-24
2022/10/13 06:47:04;;;;;;;14.70;6.30;;;;;;;9.96;72.76;99898.77;102298;1299;76400;-24
2022/10/13 06:49:31;;;;;;;8.20;3.90;;;;;;;9.89;73.29;99900.27;102221;1299;74245;-24
2022/10/13 06:51:58;;;;;;;7.60;3.80;;;;;;;10.44;73.00;99896.65;102229;1298;61850;-24
2022/10/13 06:54:25;;;;;;;8.10;4.20;;;;;;;11.13;69.67;99893.40;102285;1292;62000;-24
2022/10/13 06:56:52;;;;;;;9.10;3.90;;;;;;;11.37;68.76;99892.25;102270;1292;75534;-24
2022/10/13 06:59:20;;;;;;;10.40;4.50;;;;;;;11.28;69.27;99892.65;102309;1298;74771;-24
2022/10/13 07:01:47;;;;;;;5.90;4.00;;;;;;;11.19;69.10;99894.18;102222;1300;75362;-24
2022/10/13 07:04:15;;;;;;;19.80;5.10;;;;;;;11.03;69.53;99890.56;102380;1293;62764;-24
2022/10/13 07:06:42;;;;;;;15.10;5.20;;;;;;;10.96;69.60;99889.67;102335;1298;61764;-25
2022/10/13 07:09:09;;;;;;;10.90;5.30;;;;;;;10.91;70.53;99887.81;102349;1291;76656;-24
2022/10/13 07:11:37;;;;;;;7.70;4.90;;;;;;;10.81;69.59;99889.34;102334;1298;76776;-24
2022/10/13 07:14:04;;;;;;;10.00;4.70;;;;;;;10.83;69.65;99891.63;102272;1299;75080;-24
2022/10/13 07:16:31;;;;;;;7.40;3.80;;;;;;;10.86;70.25;99886.55;102125;1299;61805;-24
2022/10/13 07:19:00;;;;;;;6.50;3.80;;;;;;;10.87;69.53;99886.16;102358;1299;61870;-24
2022/10/13 07:21:29;;;;;;;5.80;3.20;;;;;;;10.78;70.15;99890.22;102408;1299;76200;-24
2022/10/13 07:23:56;;;;;;;11.20;3.60;;;;;;;11.20;70.55;99888.40;102338;1297;76662;-24
2022/10/13 07:26:23;;;;;;;12.90;4.40;;;;;;;11.90;69.48;99886.50;102351;1298;75195;-24
2022/10/13 07:28:50;;;;;;;8.60;3.80;;;;;;;12.13;67.63;99885.76;102152;1302;62490;-24
2022/10/13 07:31:18;;;;;;;7.50;3.70;;;;;;;11.89;67.14;99883.59;102216;1295;61524;-24
2022/10/13 07:33:47;;;;;;;7.80;3.40;;;;;;;11.82;66.80;99884.81;102251;1302;76383;-25
2022/10/13 07:36:15;;;;;;;9.80;4.10;;;;;;;11.73;66.54;99886.19;102133;1294;75808;-24
2022/10/13 07:38:42;;;;;;;7.10;3.80;;;;;;;11.65;67.35;99884.35;102292;1298;74405;-24
2022/10/13 07:41:09;;;;;;;6.50;3.50;;;;;;;11.65;66.82;99885.22;102309;1298;62533;-24
2022/10/13 07:43:37;;;;;;;8.90;3.30;;;;;;;11.69;67.23;99884.23;102341;1297;61053;-24
2022/10/13 07:46:06;;;;;;;12.20;3.30;;;;;;;11.70;65.71;99883.98;102352;1293;75324;-24
2022/10/13 07:48:34;;;;;;;11.30;3.70;;;;;;;11.71;66.34;99885.58;102243;1302;76448;-24
2022/10/13 07:51:09;;;;;;;8.50;3.60;;;;;;;11.77;66.56;99885.51;102321;1298;75415;-24
2022/10/13 07:53:39;;;;;;;8.40;4.00;;;;;;;11.74;66.12;99886.28;102267;1299;62658;-25
2022/10/13 07:56:07;;;;;;;7.10;4.30;;;;;;;11.77;66.37;99889.70;102153;1302;63343;-25
2022/10/13 07:58:36;;;;;;;26.60;12.20;;;;;;;11.89;65.87;99889.16;102293;1300;76573;-25
2022/10/13 08:01:03;;;;;;;22.70;14.00;;;;;;;12.00;67.45;99888.94;102161;1300;76763;-25
2022/10/13 08:03:31;;;;;;;29.40;16.40;;;;;;;12.06;67.36;99890.77;102334;1299;75082;-25
2022/10/13 08:05:59;;;;;;;30.80;15.40;;;;;;;12.06;67.72;99891.66;102214;1290;61782;-25
2022/10/13 08:08:26;;;;;;;28.50;15.20;;;;;;;11.95;67.14;99892.58;102172;1299;61942;-25
2022/10/13 08:10:53;;;;;;;23.90;14.20;;;;;;;11.92;67.58;99892.23;102366;1297;75457;-24
2022/10/13 08:13:22;;;;;;;28.80;14.50;;;;;;;12.08;67.29;99889.02;102403;1299;76885;-25
2022/10/13 08:15:49;;;;;;;28.20;14.40;;;;;;;12.22;67.20;99889.44;102364;1297;74129;-24
2022/10/13 08:18:51;;;;;;;20.30;10.70;;;;;;;12.36;65.89;99890.65;102342;1291;63472;-25
2022/10/13 08:21:23;;;;;;;25.10;13.10;;;;;;;13.29;63.85;99891.17;102315;1294;62890;-24
2022/10/13 08:24:14;;;;;;;22.60;12.20;;;;;;;13.98;61.51;99894.43;102392;1297;75082;-25
2022/10/13 08:26:43;;;;;;;37.60;14.50;;;;;;;14.14;62.54;99897.62;102266;1294;75665;-25
2022/10/13 08:29:10;;;;;;;29.00;17.00;;;;;;;14.25;63.84;99898.50;102217;1290;73805;-25
2022/10/13 08:31:53;;;;;;;29.30;16.80;;;;;;;14.34;62.61;99895.27;102381;1299;62257;-25
2022/10/13 08:34:23;;;;;;;22.80;14.40;;;;;;;14.35;61.17;99895.39;102366;1298;61776;-24
2022/10/13 08:36:55;;;;;;;22.00;13.80;;;;;;;14.28;61.97;99893.70;102350;1300;76022;-25
2022/10/13 08:39:23;;;;;;;28.40;13.50;;;;;;;14.27;61.84;99896.39;102103;1302;76672;-25
2022/10/13 08:41:50;;;;;;;21.50;13.10;;;;;;;14.20;60.00;99895.90;102049;1299;74223;-25
2022/10/13 08:44:30;;;;;;;23.00;11.90;;;;;;;14.19;61.76;99898.07;102218;1299;63028;-24
2022/10/13 08:47:27;;;;;;;21.30;11.10;;;;;;;14.22;61.20;99895.74;102279;1300;62998;-25
2022/10/13 08:49:55;;;;;;;19.40;9.70;;;;;;;14.15;60.94;99897.19;102275;1297;76373;-25
2022/10/13 08:52:28;;;;;;;14.20;7.80;;;;;;;13.97;60.95;99894.83;102061;1299;76866;-25
2022/10/13 08:54:56;;;;;;;13.20;6.80;;;;;;;13.90;61.53;99895.77;102163;1302;75212;-24
2022/10/13 08:57:28;;;;;;;12.20;6.40;;;;;;;13.99;60.19;99897.60;102304;1299;62053;-25
2022/10/13 08:59:57;;;;;;;9.30;4.30;;;;;;;14.13;59.16;99897.38;102356;1292;62818;-25
2022/10/13 09:02:31;;;;;;;13.40;3.50;;;;;;;14.26;59.21;99894.15;102397;1302;75180;-24
2022/10/13 09:05:04;;;;;;;4.90;2.60;;;;;;;14.32;58.27;99893.01;102214;1299;76920;-24
2022/10/13 09:07:37;;;;;;;9.30;2.90;;;;;;;14.36;56.51;99890.77;102200;1294;74872;-25
2022/10/13 09:10:07;;;;;;;6.30;2.60;;;;;;;14.28;56.67;99894.52;102361;1297;62896;-24
2022/10/13 09:12:35;;;;;;;5.60;2.20;;;;;;;14.12;55.08;99892.23;102255;1294;62434;-25
2022/10/13 09:15:10;;;;;;;4.70;2.20;;;;;;;13.98;56.19;99892.66;102104;1301;75524;-25
2022/10/13 09:17:40;;;;;;;8.20;2.70;;;;;;;14.06;55.97;99889.73;102238;1302;76604;-24
2022/10/13 09:20:26;;;;;;;11.40;2.50;;;;;;;14.01;55.73;99886.30;102161;1298;75250;-25
2022/10/13 09:23:01;;;;;;;9.10;2.10;;;;;;;14.03;55.12;99888.07;102148;1300;62617;-24
2022/10/13 09:25:41;;;;;;;7.00;2.00;;;;;;;14.13;55.85;99882.88;102403;1299;62515;-24
2022/10/13 09:28:20;;;;;;;4.40;1.90;;;;;;;14.26;54.23;99887.41;102248;1300;76328;-25
2022/10/13 09:31:05;;;;;;;5.20;2.20;;;;;;;14.23;53.84;99881.33;102347;1293;75814;-25
2022/10/13 09:33:40;;;;;;;6.20;2.40;;;;;;;14.17;53.94;99882.35;102335;1294;75126;-25
2022/10/13 09:36:14;;;;;;;8.90;2.20;;;;;;;14.06;53.01;99882.95;102275;1299;62885;-25
2022/10/13 09:39:20;;;;;;;5.90;2.10;;;;;;;14.13;53.16;99881.99;102408;1301;62764;-25
2022/10/13 09:41:49;;;;;;;8.20;2.10;;;;;;;14.33;53.56;99874.38;102096;1299;76554;-25
2022/10/13 09:44:26;;;;;;;5.90;2.10;;;;;;;14.32;53.22;99882.01;102183;1292;75467;-25
2022/10/13 09:46:56;;;;;;;3.50;1.70;;;;;;;14.58;52.25;99876.13;102273;1299;75253;-24
2022/10/13 09:49:36;;;;;;;7.10;2.20;;;;;;;15.10;50.24;99871.71;102199;1299;62750;-25
2022/10/13 09:52:18;;;;;;;6.90;2.00;;;;;;;15.62;49.47;99868.79;102140;1294;61754;-25
2022/10/13 09:54:52;;;;;;;5.80;1.70;;;;;;;15.98;44.36;99865.23;102124;1302;76336;-25
2022/10/13 09:57:23;;;;;;;4.90;1.80;;;;;;;16.29;44.92;99860.16;102376;1291;75612;-25
2022/10/13 10:00:03;;;;;;;5.30;1.90;;;;;;;16.71;44.23;99860.57;102359;1292;74078;-25
2022/10/13 10:03:07;;;;;;;4.70;1.80;;;;;;;17.06;44.30;99857.18;102323;1299;63014;-25
2022/10/13 10:05:49;;;;;;;5.90;1.70;;;;;;;16.75;42.20;99857.95;102270;1299;61723;-25
2022/10/13 10:08:46;;;;;;;3.40;1.60;;;;;;;16.67;42.80;99852.57;102408;1299;76293;-24
2022/10/13 10:11:43;;;;;;;5.80;1.40;;;;;;;16.47;41.45;99851.09;102419;1291;75612;-25
2022/10/13 10:14:38;;;;;;;5.30;1.90;;;;;;;16.32;43.28;99851.22;102200;1299;75306;-25
2022/10/13 10:17:30;;;;;;;4.70;2.90;;;;;;;16.17;42.44;99851.03;102253;1297;61987;-25
2022/10/13 10:20:19;;;;;;;46.40;23.00;;;;;;;15.62;45.33;99851.78;102421;1291;61122;-24
2022/10/13 10:22:52;;;;;;;7.10;3.40;;;;;;;15.27;45.36;99845.05;102378;1292;76514;-25
2022/10/13 10:25:41;;;;;;;5.70;2.90;;;;;;;15.16;45.01;99849.21;102381;1291;76618;-25
2022/10/13 10:28:34;;;;;;;29.00;14.00;;;;;;;15.24;42.02;99845.13;102125;1299;75230;-25
2022/10/13 10:31:51;;;;;;;6.40;2.30;;;;;;;15.12;42.72;99850.43;102376;1299;62209;-25
2022/10/13 10:34:25;;;;;;;3.40;1.20;;;;;;;14.89;42.96;99845.90;101925;1306;62952;-25
2022/10/13 10:37:12;;;;;;;9.50;1.40;;;;;;;14.85;42.21;99846.30;102229;1292;76377;-25
2022/10/13 10:39:47;;;;;;;3.00;1.20;;;;;;;14.60;40.84;99839.98;102306;1294;76773;-25
2022/10/13 10:42:45;;;;;;;3.20;1.30;;;;;;;14.65;42.68;99838.83;102367;1292;75305;-25
2022/10/13 10:45:24;;;;;;;3.00;1.00;;;;;;;14.71;42.39;99833.80;102052;1299;62196;-25
2022/10/13 10:47:54;;;;;;;7.10;1.20;;;;;;;14.82;43.07;99834.13;102301;1299;62534;-25
2022/10/13 10:50:23;;;;;;;2.60;0.80;;;;;;;15.01;40.69;99834.05;102128;1302;75507;-25
2022/10/13 10:52:59;;;;;;;5.90;0.80;;;;;;;15.24;39.80;99830.27;102208;1292;76730;-25
2022/10/13 10:55:48;;;;;;;0.70;0.40;;;;;;;15.26;39.56;99831.38;102175;1302;75230;-25
2022/10/13 10:58:48;;;;;;;3.10;0.80;;;;;;;15.13;40.38;99830.20;102286;1294;62872;-25
2022/10/13 11:01:31;;;;;;;2.20;1.10;;;;;;;14.77;39.41;99827.23;102028;1295;63068;-25
2022/10/13 11:04:24;;;;;;;4.00;1.20;;;;;;;14.75;41.25;99827.02;102230;1302;76346;-24
2022/10/13 11:06:51;;;;;;;4.70;1.30;;;;;;;14.80;42.14;99825.02;102310;1299;76869;-25
2022/10/13 11:09:40;;;;;;;2.60;1.10;;;;;;;14.70;41.59;99825.17;102276;1299;74394;-25
2022/10/13 11:12:19;;;;;;;1.70;1.00;;;;;;;14.55;42.67;99825.40;102184;1299;62595;-25
2022/10/13 11:15:09;;;;;;;1.50;0.90;;;;;;;14.30;41.31;99822.06;102172;1297;62980;-25
2022/10/13 11:17:38;;;;;;;2.10;0.80;;;;;;;14.14;43.38;99821.89;102010;1297;76169;-25
2022/10/13 11:20:34;;;;;;;2.20;0.80;;;;;;;14.07;43.18;99822.64;101967;1301;76663;-24
2022/10/13 11:23:01;;;;;;;2.30;1.20;;;;;;;13.87;43.43;99824.77;102264;1291;75097;-24
2022/10/13 11:25:42;;;;;;;4.10;1.30;;;;;;;13.76;43.95;99822.48;102286;1291;61727;-25
2022/10/13 11:28:22;;;;;;;3.60;0.90;;;;;;;13.68;43.36;99821.13;102074;1292;62619;-25
2022/10/13 11:30:54;;;;;;;4.40;1.20;;;;;;;13.60;44.00;99823.18;102182;1299;76542;-25
2022/10/13 11:33:36;;;;;;;2.60;0.80;;;;;;;13.54;44.30;99820.86;102282;1301;76811;-25
2022/10/13 11:36:42;;;;;;;3.00;1.20;;;;;;;13.48;44.09;99822.91;102298;1292;75200;-25
2022/10/13 11:39:27;;;;;;;3.70;0.80;;;;;;;13.53;44.28;99819.00;102254;1294;61142;-25
2022/10/13 11:42:20;;;;;;;2.60;0.80;;;;;;;13.57;43.56;99816.23;102326;1299;61075;-25
2022/10/13 11:44:51;;;;;;;3.20;1.00;;;;;;;13.62;43.14;99812.90;102267;1302;75454;-24
2022/10/13 11:47:37;;;;;;;3.00;1.00;;;;;;;13.64;43.56;99807.45;102268;1293;75190;-24
2022/10/13 11:50:43;;;;;;;2.30;0.90;;;;;;;13.67;44.12;99807.54;102331;1292;75083;-25